sensor_id;sensor_type;location;lat;lon;timestamp;P1;durP1;ratioP1;P2;durP2;ratioP2
76894;SDS011;65855;42.030;13.078;2024-03-23T00:56:21;5.55;;;3.42;;
76894;SDS011;65855;42.030;13.078;2024-03-23T00:58:46;5.72;;;1.70;;
76894;SDS011;65855;42.030;13.078;2024-03-23T01:01:11;5.83;;;2.73;;
76894;SDS011;65855;42.030;13.078;2024-03-23T01:03:37;6.50;;;3.47;;
76894;SDS011;65855;42.030;13.078;2024-03-23T01:06:02;5.73;;;2.70;;
76894;SDS011;65855;42.030;13.078;2024-03-23T01:08:28;6.85;;;2.22;;
76894;SDS011;65855;42.030;13.078;2024-03-23T01:10:54;4.82;;;1.83;;
76894;SDS011;65855;42.030;13.078;2024-03-23T01:13:20;6.32;;;2.92;;
76894;SDS011;65855;42.030;13.078;2024-03-23T01:15:54;4.55;;;2.40;;
76894;SDS011;65855;42.030;13.078;2024-03-23T01:18:20;5.32;;;2.35;;
76894;SDS011;65855;42.030;13.078;2024-03-23T01:20:45;3.30;;;1.45;;
76894;SDS011;65855;42.030;13.078;2024-03-23T01:23:10;3.95;;;2.28;;
76894;SDS011;65855;42.030;13.078;2024-03-23T01:25:36;2.08;;;1.10;;
76894;SDS011;65855;42.030;13.078;2024-03-23T01:28:01;4.82;;;2.25;;
76894;SDS011;65855;42.030;13.078;2024-03-23T01:30:27;4.47;;;1.73;;
76894;SDS011;65855;42.030;13.078;2024-03-23T01:32:52;5.10;;;2.70;;
76894;SDS011;65855;42.030;13.078;2024-03-23T01:35:17;2.87;;;1.87;;
76894;SDS011;65855;42.030;13.078;2024-03-23T01:37:42;4.77;;;1.97;;
76894;SDS011;65855;42.030;13.078;2024-03-23T01:40:08;4.93;;;2.57;;
76894;SDS011;65855;42.030;13.078;2024-03-23T01:42:33;7.32;;;3.05;;
76894;SDS011;65855;42.030;13.078;2024-03-23T01:44:59;4.32;;;2.08;;
76894;SDS011;65855;42.030;13.078;2024-03-23T01:47:24;7.00;;;2.63;;
76894;SDS011;65855;42.030;13.078;2024-03-23T01:49:49;5.33;;;1.90;;
76894;SDS011;65855;42.030;13.078;2024-03-23T01:52:14;5.38;;;2.28;;
76894;SDS011;65855;42.030;13.078;2024-03-23T01:54:40;6.57;;;2.55;;
76894;SDS011;65855;42.030;13.078;2024-03-23T01:57:06;5.68;;;2.40;;
76894;SDS011;65855;42.030;13.078;2024-03-23T01:59:31;5.22;;;2.17;;
76894;SDS011;65855;42.030;13.078;2024-03-23T02:01:56;7.60;;;2.75;;
76894;SDS011;65855;42.030;13.078;2024-03-23T02:04:22;7.30;;;3.17;;
76894;SDS011;65855;42.030;13.078;2024-03-23T02:06:47;8.10;;;4.72;;
76894;SDS011;65855;42.030;13.078;2024-03-23T02:09:13;4.38;;;1.92;;
76894;SDS011;65855;42.030;13.078;2024-03-23T02:11:38;5.82;;;2.83;;
76894;SDS011;65855;42.030;13.078;2024-03-23T02:14:04;6.07;;;2.80;;
76894;SDS011;65855;42.030;13.078;2024-03-23T02:16:29;5.53;;;2.95;;
76894;SDS011;65855;42.030;13.078;2024-03-23T02:18:54;6.38;;;2.90;;
76894;SDS011;65855;42.030;13.078;2024-03-23T02:21:20;8.07;;;2.88;;
76894;SDS011;65855;42.030;13.078;2024-03-23T02:23:45;6.50;;;3.20;;
76894;SDS011;65855;42.030;13.078;2024-03-23T02:26:10;7.20;;;2.93;;
76894;SDS011;65855;42.030;13.078;2024-03-23T02:28:36;5.95;;;2.90;;
76894;SDS011;65855;42.030;13.078;2024-03-23T02:31:01;7.40;;;3.17;;
76894;SDS011;65855;42.030;13.078;2024-03-23T02:33:27;5.93;;;2.50;;
76894;SDS011;65855;42.030;13.078;2024-03-23T02:35:55;8.52;;;2.97;;
76894;SDS011;65855;42.030;13.078;2024-03-23T02:38:20;6.25;;;2.38;;
76894;SDS011;65855;42.030;13.078;2024-03-23T02:40:46;8.00;;;2.70;;
76894;SDS011;65855;42.030;13.078;2024-03-23T02:43:11;7.00;;;3.10;;
76894;SDS011;65855;42.030;13.078;2024-03-23T02:45:36;6.20;;;2.40;;
76894;SDS011;65855;42.030;13.078;2024-03-23T02:48:02;5.20;;;2.35;;
76894;SDS011;65855;42.030;13.078;2024-03-23T02:50:28;7.00;;;3.17;;
76894;SDS011;65855;42.030;13.078;2024-03-23T02:52:54;6.00;;;2.90;;
76894;SDS011;65855;42.030;13.078;2024-03-23T02:55:19;6.63;;;2.30;;
76894;SDS011;65855;42.030;13.078;2024-03-23T02:57:44;7.07;;;2.53;;
76894;SDS011;65855;42.030;13.078;2024-03-23T03:00:10;5.30;;;2.50;;
76894;SDS011;65855;42.030;13.078;2024-03-23T03:02:36;7.47;;;3.05;;
76894;SDS011;65855;42.030;13.078;2024-03-23T03:05:02;7.32;;;3.22;;
76894;SDS011;65855;42.030;13.078;2024-03-23T03:07:29;7.88;;;3.00;;
76894;SDS011;65855;42.030;13.078;2024-03-23T03:09:55;6.75;;;2.40;;
76894;SDS011;65855;42.030;13.078;2024-03-23T03:12:20;6.70;;;2.80;;
76894;SDS011;65855;42.030;13.078;2024-03-23T03:14:45;6.97;;;3.27;;
76894;SDS011;65855;42.030;13.078;2024-03-23T03:17:11;7.00;;;3.45;;
76894;SDS011;65855;42.030;13.078;2024-03-23T03:19:36;8.25;;;3.75;;
76894;SDS011;65855;42.030;13.078;2024-03-23T03:22:01;6.28;;;3.55;;
76894;SDS011;65855;42.030;13.078;2024-03-23T03:24:27;8.05;;;4.05;;
76894;SDS011;65855;42.030;13.078;2024-03-23T03:26:52;10.23;;;3.42;;
76894;SDS011;65855;42.030;13.078;2024-03-23T03:29:17;5.80;;;2.53;;
76894;SDS011;65855;42.030;13.078;2024-03-23T03:31:43;7.90;;;3.17;;
76894;SDS011;65855;42.030;13.078;2024-03-23T03:34:09;6.40;;;2.33;;
76894;SDS011;65855;42.030;13.078;2024-03-23T03:36:34;7.47;;;2.50;;
76894;SDS011;65855;42.030;13.078;2024-03-23T03:38:59;5.97;;;2.65;;
76894;SDS011;65855;42.030;13.078;2024-03-23T03:41:25;6.97;;;3.10;;
76894;SDS011;65855;42.030;13.078;2024-03-23T03:43:50;7.22;;;2.70;;
76894;SDS011;65855;42.030;13.078;2024-03-23T03:46:15;9.30;;;3.72;;
76894;SDS011;65855;42.030;13.078;2024-03-23T03:48:41;8.15;;;2.88;;
76894;SDS011;65855;42.030;13.078;2024-03-23T03:51:06;7.40;;;4.75;;
76894;SDS011;65855;42.030;13.078;2024-03-23T03:53:31;6.70;;;2.95;;
76894;SDS011;65855;42.030;13.078;2024-03-23T03:56:00;5.93;;;3.15;;
76894;SDS011;65855;42.030;13.078;2024-03-23T03:58:25;7.47;;;3.67;;
76894;SDS011;65855;42.030;13.078;2024-03-23T04:00:51;6.75;;;4.30;;
76894;SDS011;65855;42.030;13.078;2024-03-23T04:03:16;6.35;;;3.78;;
76894;SDS011;65855;42.030;13.078;2024-03-23T04:05:41;6.45;;;3.72;;
76894;SDS011;65855;42.030;13.078;2024-03-23T04:08:07;7.15;;;3.15;;
76894;SDS011;65855;42.030;13.078;2024-03-23T04:10:32;7.68;;;3.47;;
76894;SDS011;65855;42.030;13.078;2024-03-23T04:12:57;6.80;;;2.97;;
76894;SDS011;65855;42.030;13.078;2024-03-23T04:15:23;6.53;;;2.63;;
76894;SDS011;65855;42.030;13.078;2024-03-23T04:17:48;6.90;;;3.22;;
76894;SDS011;65855;42.030;13.078;2024-03-23T04:20:13;6.00;;;2.60;;
76894;SDS011;65855;42.030;13.078;2024-03-23T04:22:42;8.07;;;3.30;;
76894;SDS011;65855;42.030;13.078;2024-03-23T04:25:07;8.50;;;3.35;;
76894;SDS011;65855;42.030;13.078;2024-03-23T04:27:33;6.95;;;3.05;;
76894;SDS011;65855;42.030;13.078;2024-03-23T04:29:58;7.95;;;3.15;;
76894;SDS011;65855;42.030;13.078;2024-03-23T04:32:25;8.48;;;3.05;;
76894;SDS011;65855;42.030;13.078;2024-03-23T04:34:51;8.90;;;3.33;;
76894;SDS011;65855;42.030;13.078;2024-03-23T04:37:16;7.50;;;3.03;;
76894;SDS011;65855;42.030;13.078;2024-03-23T04:39:43;5.55;;;3.10;;
76894;SDS011;65855;42.030;13.078;2024-03-23T04:42:08;5.53;;;2.42;;
76894;SDS011;65855;42.030;13.078;2024-03-23T04:44:33;6.23;;;2.67;;
76894;SDS011;65855;42.030;13.078;2024-03-23T04:47:00;6.63;;;3.15;;
76894;SDS011;65855;42.030;13.078;2024-03-23T04:49:25;6.35;;;2.78;;
76894;SDS011;65855;42.030;13.078;2024-03-23T04:51:51;8.18;;;3.63;;
76894;SDS011;65855;42.030;13.078;2024-03-23T04:54:16;8.75;;;2.65;;
76894;SDS011;65855;42.030;13.078;2024-03-23T04:56:41;6.93;;;3.23;;
76894;SDS011;65855;42.030;13.078;2024-03-23T04:59:07;8.07;;;3.20;;
76894;SDS011;65855;42.030;13.078;2024-03-23T05:01:32;7.03;;;2.92;;
76894;SDS011;65855;42.030;13.078;2024-03-23T05:03:58;7.35;;;3.60;;
76894;SDS011;65855;42.030;13.078;2024-03-23T05:06:26;7.85;;;3.20;;
76894;SDS011;65855;42.030;13.078;2024-03-23T05:08:51;8.10;;;2.97;;
76894;SDS011;65855;42.030;13.078;2024-03-23T05:11:17;7.20;;;3.08;;
76894;SDS011;65855;42.030;13.078;2024-03-23T05:13:42;6.97;;;3.10;;
76894;SDS011;65855;42.030;13.078;2024-03-23T05:16:08;7.97;;;3.55;;
76894;SDS011;65855;42.030;13.078;2024-03-23T05:18:33;8.63;;;2.90;;
76894;SDS011;65855;42.030;13.078;2024-03-23T05:20:59;8.65;;;3.22;;
76894;SDS011;65855;42.030;13.078;2024-03-23T05:23:25;6.45;;;3.33;;
76894;SDS011;65855;42.030;13.078;2024-03-23T05:25:50;6.80;;;2.92;;
76894;SDS011;65855;42.030;13.078;2024-03-23T05:28:16;8.10;;;3.50;;
76894;SDS011;65855;42.030;13.078;2024-03-23T05:30:42;6.72;;;2.85;;
76894;SDS011;65855;42.030;13.078;2024-03-23T05:33:07;6.78;;;2.45;;
76894;SDS011;65855;42.030;13.078;2024-03-23T05:35:32;7.00;;;3.45;;
76894;SDS011;65855;42.030;13.078;2024-03-23T05:37:58;9.18;;;3.53;;
76894;SDS011;65855;42.030;13.078;2024-03-23T05:40:26;7.30;;;3.70;;
76894;SDS011;65855;42.030;13.078;2024-03-23T05:42:51;7.55;;;3.40;;
76894;SDS011;65855;42.030;13.078;2024-03-23T05:45:20;7.07;;;3.17;;
76894;SDS011;65855;42.030;13.078;2024-03-23T05:47:47;7.93;;;3.85;;
76894;SDS011;65855;42.030;13.078;2024-03-23T05:50:13;8.77;;;3.45;;
76894;SDS011;65855;42.030;13.078;2024-03-23T05:52:38;7.35;;;3.28;;
76894;SDS011;65855;42.030;13.078;2024-03-23T05:55:04;7.93;;;3.20;;
76894;SDS011;65855;42.030;13.078;2024-03-23T05:57:30;9.10;;;4.63;;
76894;SDS011;65855;42.030;13.078;2024-03-23T05:59:55;8.63;;;4.37;;
76894;SDS011;65855;42.030;13.078;2024-03-23T06:02:20;10.02;;;4.45;;
76894;SDS011;65855;42.030;13.078;2024-03-23T06:04:46;10.93;;;4.18;;
76894;SDS011;65855;42.030;13.078;2024-03-23T06:07:11;7.30;;;3.60;;
76894;SDS011;65855;42.030;13.078;2024-03-23T06:09:39;9.75;;;3.90;;
76894;SDS011;65855;42.030;13.078;2024-03-23T06:12:04;8.00;;;4.13;;
76894;SDS011;65855;42.030;13.078;2024-03-23T06:14:30;8.45;;;3.63;;
76894;SDS011;65855;42.030;13.078;2024-03-23T06:16:55;8.93;;;3.47;;
76894;SDS011;65855;42.030;13.078;2024-03-23T06:19:20;9.70;;;4.57;;
76894;SDS011;65855;42.030;13.078;2024-03-23T06:21:46;8.30;;;4.13;;
76894;SDS011;65855;42.030;13.078;2024-03-23T06:24:11;6.47;;;3.63;;
76894;SDS011;65855;42.030;13.078;2024-03-23T06:26:36;9.50;;;3.83;;
76894;SDS011;65855;42.030;13.078;2024-03-23T06:29:02;8.20;;;3.20;;
76894;SDS011;65855;42.030;13.078;2024-03-23T06:31:27;6.68;;;3.58;;
76894;SDS011;65855;42.030;13.078;2024-03-23T06:33:54;7.97;;;4.15;;
76894;SDS011;65855;42.030;13.078;2024-03-23T06:36:20;8.80;;;3.65;;
76894;SDS011;65855;42.030;13.078;2024-03-23T06:38:45;14.52;;;7.85;;
76894;SDS011;65855;42.030;13.078;2024-03-23T06:41:10;14.43;;;8.27;;
76894;SDS011;65855;42.030;13.078;2024-03-23T06:43:36;23.98;;;15.13;;
76894;SDS011;65855;42.030;13.078;2024-03-23T06:46:02;12.75;;;6.28;;
76894;SDS011;65855;42.030;13.078;2024-03-23T06:48:29;10.93;;;4.85;;
76894;SDS011;65855;42.030;13.078;2024-03-23T06:50:57;12.80;;;5.57;;
76894;SDS011;65855;42.030;13.078;2024-03-23T06:53:22;13.73;;;6.30;;
76894;SDS011;65855;42.030;13.078;2024-03-23T06:55:51;10.02;;;4.90;;
76894;SDS011;65855;42.030;13.078;2024-03-23T06:58:18;12.60;;;5.72;;
76894;SDS011;65855;42.030;13.078;2024-03-23T07:00:43;15.18;;;6.50;;
76894;SDS011;65855;42.030;13.078;2024-03-23T07:03:08;14.93;;;7.27;;
76894;SDS011;65855;42.030;13.078;2024-03-23T07:05:34;10.67;;;5.83;;
76894;SDS011;65855;42.030;13.078;2024-03-23T07:07:59;9.27;;;3.80;;
76894;SDS011;65855;42.030;13.078;2024-03-23T07:10:24;11.37;;;4.13;;
76894;SDS011;65855;42.030;13.078;2024-03-23T07:12:50;9.37;;;4.77;;
76894;SDS011;65855;42.030;13.078;2024-03-23T07:15:15;9.80;;;4.40;;
76894;SDS011;65855;42.030;13.078;2024-03-23T07:17:41;8.20;;;4.47;;
76894;SDS011;65855;42.030;13.078;2024-03-23T07:20:06;7.78;;;4.30;;
76894;SDS011;65855;42.030;13.078;2024-03-23T07:22:35;10.05;;;4.15;;
76894;SDS011;65855;42.030;13.078;2024-03-23T07:25:01;10.07;;;3.95;;
76894;SDS011;65855;42.030;13.078;2024-03-23T07:27:26;7.88;;;3.47;;
76894;SDS011;65855;42.030;13.078;2024-03-23T07:29:51;9.43;;;4.38;;
76894;SDS011;65855;42.030;13.078;2024-03-23T07:32:17;7.38;;;3.55;;
76894;SDS011;65855;42.030;13.078;2024-03-23T07:34:42;9.32;;;4.30;;
76894;SDS011;65855;42.030;13.078;2024-03-23T07:37:09;7.57;;;4.30;;
76894;SDS011;65855;42.030;13.078;2024-03-23T07:39:34;8.75;;;3.90;;
76894;SDS011;65855;42.030;13.078;2024-03-23T07:42:00;12.55;;;4.25;;
76894;SDS011;65855;42.030;13.078;2024-03-23T07:44:25;9.75;;;4.70;;
76894;SDS011;65855;42.030;13.078;2024-03-23T07:46:50;8.50;;;3.90;;
76894;SDS011;65855;42.030;13.078;2024-03-23T07:49:16;8.35;;;4.63;;
76894;SDS011;65855;42.030;13.078;2024-03-23T07:51:41;10.05;;;4.85;;
76894;SDS011;65855;42.030;13.078;2024-03-23T07:54:06;8.65;;;4.85;;
76894;SDS011;65855;42.030;13.078;2024-03-23T07:56:32;10.03;;;4.63;;
76894;SDS011;65855;42.030;13.078;2024-03-23T07:58:57;7.55;;;3.63;;
76894;SDS011;65855;42.030;13.078;2024-03-23T08:01:22;8.35;;;4.47;;
76894;SDS011;65855;42.030;13.078;2024-03-23T08:03:49;9.02;;;4.85;;
76894;SDS011;65855;42.030;13.078;2024-03-23T08:06:15;11.25;;;4.78;;
76894;SDS011;65855;42.030;13.078;2024-03-23T08:08:41;10.18;;;4.35;;
76894;SDS011;65855;42.030;13.078;2024-03-23T08:11:07;8.88;;;4.15;;
76894;SDS011;65855;42.030;13.078;2024-03-23T08:13:33;9.20;;;4.28;;
76894;SDS011;65855;42.030;13.078;2024-03-23T08:16:02;7.90;;;4.45;;
76894;SDS011;65855;42.030;13.078;2024-03-23T08:18:28;6.90;;;2.75;;
76894;SDS011;65855;42.030;13.078;2024-03-23T08:20:57;7.82;;;3.35;;
76894;SDS011;65855;42.030;13.078;2024-03-23T08:23:23;8.52;;;3.28;;
76894;SDS011;65855;42.030;13.078;2024-03-23T08:25:49;7.50;;;2.97;;
76894;SDS011;65855;42.030;13.078;2024-03-23T08:28:14;10.17;;;3.00;;
76894;SDS011;65855;42.030;13.078;2024-03-23T08:30:40;6.93;;;2.90;;
76894;SDS011;65855;42.030;13.078;2024-03-23T08:33:05;6.73;;;2.67;;
76894;SDS011;65855;42.030;13.078;2024-03-23T08:35:30;8.33;;;3.40;;
76894;SDS011;65855;42.030;13.078;2024-03-23T08:37:55;6.17;;;2.70;;
76894;SDS011;65855;42.030;13.078;2024-03-23T08:40:21;5.63;;;1.93;;
76894;SDS011;65855;42.030;13.078;2024-03-23T08:42:47;8.13;;;2.58;;
76894;SDS011;65855;42.030;13.078;2024-03-23T08:45:12;6.55;;;2.13;;
76894;SDS011;65855;42.030;13.078;2024-03-23T08:47:38;5.80;;;2.28;;
76894;SDS011;65855;42.030;13.078;2024-03-23T08:50:03;6.03;;;2.17;;
76894;SDS011;65855;42.030;13.078;2024-03-23T08:52:29;5.80;;;2.20;;
76894;SDS011;65855;42.030;13.078;2024-03-23T08:54:55;5.38;;;1.55;;
76894;SDS011;65855;42.030;13.078;2024-03-23T08:57:21;5.20;;;2.75;;
76894;SDS011;65855;42.030;13.078;2024-03-23T08:59:46;5.15;;;2.03;;
76894;SDS011;65855;42.030;13.078;2024-03-23T09:02:11;6.43;;;2.42;;
76894;SDS011;65855;42.030;13.078;2024-03-23T09:04:37;7.23;;;3.20;;
76894;SDS011;65855;42.030;13.078;2024-03-23T09:07:02;5.20;;;2.27;;
76894;SDS011;65855;42.030;13.078;2024-03-23T09:09:27;6.07;;;1.92;;
76894;SDS011;65855;42.030;13.078;2024-03-23T09:11:53;5.68;;;2.35;;
76894;SDS011;65855;42.030;13.078;2024-03-23T09:14:18;5.07;;;1.55;;
76894;SDS011;65855;42.030;13.078;2024-03-23T09:16:44;5.90;;;1.95;;
76894;SDS011;65855;42.030;13.078;2024-03-23T09:19:09;5.65;;;1.80;;
76894;SDS011;65855;42.030;13.078;2024-03-23T09:21:35;6.03;;;1.85;;
76894;SDS011;65855;42.030;13.078;2024-03-23T09:24:00;9.32;;;2.28;;
76894;SDS011;65855;42.030;13.078;2024-03-23T09:26:25;5.28;;;2.15;;
76894;SDS011;65855;42.030;13.078;2024-03-23T09:28:51;6.28;;;2.17;;
76894;SDS011;65855;42.030;13.078;2024-03-23T09:31:16;6.22;;;2.28;;
76894;SDS011;65855;42.030;13.078;2024-03-23T09:33:42;5.10;;;2.40;;
76894;SDS011;65855;42.030;13.078;2024-03-23T09:36:07;7.72;;;3.22;;
76894;SDS011;65855;42.030;13.078;2024-03-23T09:38:33;6.25;;;2.40;;
76894;SDS011;65855;42.030;13.078;2024-03-23T09:40:58;5.30;;;2.15;;
76894;SDS011;65855;42.030;13.078;2024-03-23T09:43:24;5.30;;;2.00;;
76894;SDS011;65855;42.030;13.078;2024-03-23T09:45:49;6.40;;;2.13;;
76894;SDS011;65855;42.030;13.078;2024-03-23T09:48:15;6.28;;;2.60;;
76894;SDS011;65855;42.030;13.078;2024-03-23T09:50:41;6.68;;;1.95;;
76894;SDS011;65855;42.030;13.078;2024-03-23T09:53:07;7.93;;;2.25;;
76894;SDS011;65855;42.030;13.078;2024-03-23T09:55:33;7.07;;;3.53;;
76894;SDS011;65855;42.030;13.078;2024-03-23T09:58:00;5.72;;;2.05;;
76894;SDS011;65855;42.030;13.078;2024-03-23T10:00:25;5.60;;;2.30;;
76894;SDS011;65855;42.030;13.078;2024-03-23T10:02:51;6.88;;;2.10;;
76894;SDS011;65855;42.030;13.078;2024-03-23T10:05:20;6.67;;;2.13;;
76894;SDS011;65855;42.030;13.078;2024-03-23T10:07:46;7.07;;;2.10;;
76894;SDS011;65855;42.030;13.078;2024-03-23T10:10:12;7.18;;;2.42;;
76894;SDS011;65855;42.030;13.078;2024-03-23T10:12:39;6.93;;;2.15;;
76894;SDS011;65855;42.030;13.078;2024-03-23T10:15:13;5.45;;;2.00;;
76894;SDS011;65855;42.030;13.078;2024-03-23T10:17:40;6.30;;;2.03;;
76894;SDS011;65855;42.030;13.078;2024-03-23T10:20:06;5.37;;;2.00;;
76894;SDS011;65855;42.030;13.078;2024-03-23T10:22:36;7.15;;;1.98;;
76894;SDS011;65855;42.030;13.078;2024-03-23T10:25:08;6.20;;;2.17;;
76894;SDS011;65855;42.030;13.078;2024-03-23T10:27:34;8.25;;;2.13;;
76894;SDS011;65855;42.030;13.078;2024-03-23T10:30:07;5.68;;;2.53;;
76894;SDS011;65855;42.030;13.078;2024-03-23T10:32:32;6.05;;;1.95;;
76894;SDS011;65855;42.030;13.078;2024-03-23T10:35:13;6.75;;;2.47;;
76894;SDS011;65855;42.030;13.078;2024-03-23T10:37:38;6.18;;;2.15;;
76894;SDS011;65855;42.030;13.078;2024-03-23T10:40:04;6.38;;;2.30;;
76894;SDS011;65855;42.030;13.078;2024-03-23T10:42:30;5.28;;;2.17;;
76894;SDS011;65855;42.030;13.078;2024-03-23T10:44:56;6.78;;;2.55;;
76894;SDS011;65855;42.030;13.078;2024-03-23T10:47:22;4.82;;;1.60;;
76894;SDS011;65855;42.030;13.078;2024-03-23T10:49:47;7.03;;;2.70;;
76894;SDS011;65855;42.030;13.078;2024-03-23T10:52:13;6.95;;;2.67;;
76894;SDS011;65855;42.030;13.078;2024-03-23T10:54:39;5.95;;;2.33;;
76894;SDS011;65855;42.030;13.078;2024-03-23T10:57:08;5.75;;;2.13;;
76894;SDS011;65855;42.030;13.078;2024-03-23T10:59:34;4.88;;;1.83;;
76894;SDS011;65855;42.030;13.078;2024-03-23T11:02:01;5.88;;;3.28;;
76894;SDS011;65855;42.030;13.078;2024-03-23T11:04:30;6.30;;;2.30;;
76894;SDS011;65855;42.030;13.078;2024-03-23T11:06:56;5.03;;;1.80;;
76894;SDS011;65855;42.030;13.078;2024-03-23T11:09:43;6.53;;;2.72;;
76894;SDS011;65855;42.030;13.078;2024-03-23T11:17:22;8.10;;;2.47;;
76894;SDS011;65855;42.030;13.078;2024-03-23T11:20:03;5.80;;;2.10;;
76894;SDS011;65855;42.030;13.078;2024-03-23T11:22:43;7.57;;;2.03;;
76894;SDS011;65855;42.030;13.078;2024-03-23T11:27:37;5.93;;;2.63;;
76894;SDS011;65855;42.030;13.078;2024-03-23T11:33:00;8.18;;;3.10;;
76894;SDS011;65855;42.030;13.078;2024-03-23T11:35:27;7.00;;;2.97;;
76894;SDS011;65855;42.030;13.078;2024-03-23T11:38:06;7.38;;;2.90;;
76894;SDS011;65855;42.030;13.078;2024-03-23T11:40:48;6.00;;;2.40;;
76894;SDS011;65855;42.030;13.078;2024-03-23T11:43:17;7.43;;;3.58;;
76894;SDS011;65855;42.030;13.078;2024-03-23T11:45:47;7.28;;;3.08;;
76894;SDS011;65855;42.030;13.078;2024-03-23T11:48:16;8.63;;;3.78;;
76894;SDS011;65855;42.030;13.078;2024-03-23T11:50:44;7.50;;;3.40;;
76894;SDS011;65855;42.030;13.078;2024-03-23T11:53:20;7.57;;;3.53;;
76894;SDS011;65855;42.030;13.078;2024-03-23T11:55:49;6.97;;;3.38;;
76894;SDS011;65855;42.030;13.078;2024-03-23T11:58:16;9.50;;;3.80;;
76894;SDS011;65855;42.030;13.078;2024-03-23T12:00:42;10.95;;;3.92;;
76894;SDS011;65855;42.030;13.078;2024-03-23T12:03:07;10.80;;;3.92;;
76894;SDS011;65855;42.030;13.078;2024-03-23T12:05:33;8.35;;;3.53;;
76894;SDS011;65855;42.030;13.078;2024-03-23T12:10:50;7.80;;;3.78;;
76894;SDS011;65855;42.030;13.078;2024-03-23T12:13:16;10.15;;;4.60;;
76894;SDS011;65855;42.030;13.078;2024-03-23T12:15:42;9.05;;;4.82;;
76894;SDS011;65855;42.030;13.078;2024-03-23T12:18:08;10.52;;;5.05;;
76894;SDS011;65855;42.030;13.078;2024-03-23T12:20:33;11.80;;;5.20;;
76894;SDS011;65855;42.030;13.078;2024-03-23T12:23:06;9.40;;;4.43;;
76894;SDS011;65855;42.030;13.078;2024-03-23T12:25:31;10.35;;;5.53;;
76894;SDS011;65855;42.030;13.078;2024-03-23T12:28:00;9.73;;;5.10;;
76894;SDS011;65855;42.030;13.078;2024-03-23T12:30:25;9.50;;;5.40;;
76894;SDS011;65855;42.030;13.078;2024-03-23T12:32:50;10.07;;;4.53;;
76894;SDS011;65855;42.030;13.078;2024-03-23T12:35:16;9.60;;;4.23;;
76894;SDS011;65855;42.030;13.078;2024-03-23T12:37:41;10.63;;;4.22;;
76894;SDS011;65855;42.030;13.078;2024-03-23T12:40:06;8.90;;;4.13;;
76894;SDS011;65855;42.030;13.078;2024-03-23T12:42:32;9.77;;;4.45;;
76894;SDS011;65855;42.030;13.078;2024-03-23T12:44:58;11.20;;;4.53;;
76894;SDS011;65855;42.030;13.078;2024-03-23T12:47:23;12.67;;;4.03;;
76894;SDS011;65855;42.030;13.078;2024-03-23T12:49:48;8.50;;;4.53;;
76894;SDS011;65855;42.030;13.078;2024-03-23T12:52:14;9.88;;;4.63;;
76894;SDS011;65855;42.030;13.078;2024-03-23T12:54:40;8.45;;;3.88;;
76894;SDS011;65855;42.030;13.078;2024-03-23T12:57:05;12.00;;;4.10;;
76894;SDS011;65855;42.030;13.078;2024-03-23T12:59:30;8.97;;;3.93;;
76894;SDS011;65855;42.030;13.078;2024-03-23T13:01:56;8.07;;;3.42;;
76894;SDS011;65855;42.030;13.078;2024-03-23T13:04:21;7.43;;;3.13;;
76894;SDS011;65855;42.030;13.078;2024-03-23T13:06:47;8.00;;;3.13;;
76894;SDS011;65855;42.030;13.078;2024-03-23T13:09:12;6.43;;;3.00;;
76894;SDS011;65855;42.030;13.078;2024-03-23T13:11:37;6.70;;;2.85;;
76894;SDS011;65855;42.030;13.078;2024-03-23T13:14:03;5.83;;;2.50;;
76894;SDS011;65855;42.030;13.078;2024-03-23T13:16:29;6.10;;;2.45;;
76894;SDS011;65855;42.030;13.078;2024-03-23T13:18:54;7.90;;;3.00;;
76894;SDS011;65855;42.030;13.078;2024-03-23T13:21:19;5.95;;;2.33;;
76894;SDS011;65855;42.030;13.078;2024-03-23T13:23:48;5.73;;;2.20;;
76894;SDS011;65855;42.030;13.078;2024-03-23T13:26:15;6.53;;;2.20;;
76894;SDS011;65855;42.030;13.078;2024-03-23T13:28:40;11.70;;;2.53;;
76894;SDS011;65855;42.030;13.078;2024-03-23T13:31:06;7.03;;;2.22;;
76894;SDS011;65855;42.030;13.078;2024-03-23T13:33:31;6.20;;;1.90;;
76894;SDS011;65855;42.030;13.078;2024-03-23T13:35:57;6.47;;;2.13;;
76894;SDS011;65855;42.030;13.078;2024-03-23T13:38:22;5.38;;;1.88;;
76894;SDS011;65855;42.030;13.078;2024-03-23T13:40:54;7.18;;;2.05;;
76894;SDS011;65855;42.030;13.078;2024-03-23T13:43:20;5.55;;;1.83;;
76894;SDS011;65855;42.030;13.078;2024-03-23T13:45:49;5.05;;;1.73;;
76894;SDS011;65855;42.030;13.078;2024-03-23T13:48:16;5.78;;;1.52;;
76894;SDS011;65855;42.030;13.078;2024-03-23T13:50:41;5.22;;;2.58;;
76894;SDS011;65855;42.030;13.078;2024-03-23T13:53:07;5.55;;;1.75;;
76894;SDS011;65855;42.030;13.078;2024-03-23T13:55:33;6.18;;;2.38;;
76894;SDS011;65855;42.030;13.078;2024-03-23T13:57:59;6.30;;;2.13;;
76894;SDS011;65855;42.030;13.078;2024-03-23T14:00:24;5.37;;;1.37;;
76894;SDS011;65855;42.030;13.078;2024-03-23T14:02:49;4.38;;;1.50;;
76894;SDS011;65855;42.030;13.078;2024-03-23T14:05:14;5.77;;;2.00;;
76894;SDS011;65855;42.030;13.078;2024-03-23T14:07:40;4.47;;;1.52;;
76894;SDS011;65855;42.030;13.078;2024-03-23T14:10:05;5.63;;;1.98;;
76894;SDS011;65855;42.030;13.078;2024-03-23T14:12:37;5.93;;;1.75;;
76894;SDS011;65855;42.030;13.078;2024-03-23T14:15:05;6.22;;;2.03;;
76894;SDS011;65855;42.030;13.078;2024-03-23T14:17:31;5.07;;;2.00;;
76894;SDS011;65855;42.030;13.078;2024-03-23T14:19:57;5.65;;;2.22;;
76894;SDS011;65855;42.030;13.078;2024-03-23T14:22:26;6.32;;;2.42;;
76894;SDS011;65855;42.030;13.078;2024-03-23T14:24:52;5.15;;;2.03;;
76894;SDS011;65855;42.030;13.078;2024-03-23T14:27:17;4.13;;;1.67;;
76894;SDS011;65855;42.030;13.078;2024-03-23T14:29:45;5.32;;;1.83;;
76894;SDS011;65855;42.030;13.078;2024-03-23T14:32:10;5.20;;;1.70;;
76894;SDS011;65855;42.030;13.078;2024-03-23T14:34:36;4.83;;;1.80;;
76894;SDS011;65855;42.030;13.078;2024-03-23T14:37:01;4.65;;;1.60;;
76894;SDS011;65855;42.030;13.078;2024-03-23T14:39:27;6.97;;;1.98;;
76894;SDS011;65855;42.030;13.078;2024-03-23T14:41:52;6.83;;;2.07;;
76894;SDS011;65855;42.030;13.078;2024-03-23T14:44:17;5.32;;;1.98;;
76894;SDS011;65855;42.030;13.078;2024-03-23T14:46:43;5.05;;;2.03;;
76894;SDS011;65855;42.030;13.078;2024-03-23T14:49:08;6.40;;;2.43;;
76894;SDS011;65855;42.030;13.078;2024-03-23T14:51:33;5.15;;;1.90;;
76894;SDS011;65855;42.030;13.078;2024-03-23T14:53:59;5.20;;;2.50;;
76894;SDS011;65855;42.030;13.078;2024-03-23T14:56:24;5.65;;;3.08;;
76894;SDS011;65855;42.030;13.078;2024-03-23T14:58:52;7.88;;;2.38;;
76894;SDS011;65855;42.030;13.078;2024-03-23T15:01:17;8.00;;;2.47;;
76894;SDS011;65855;42.030;13.078;2024-03-23T15:03:43;6.90;;;2.63;;
76894;SDS011;65855;42.030;13.078;2024-03-23T15:06:09;5.75;;;2.47;;
76894;SDS011;65855;42.030;13.078;2024-03-23T15:08:35;5.53;;;2.22;;
76894;SDS011;65855;42.030;13.078;2024-03-23T15:11:01;8.77;;;2.78;;
76894;SDS011;65855;42.030;13.078;2024-03-23T15:13:35;7.03;;;2.20;;
76894;SDS011;65855;42.030;13.078;2024-03-23T15:16:01;5.57;;;2.30;;
76894;SDS011;65855;42.030;13.078;2024-03-23T15:18:28;7.55;;;2.50;;
76894;SDS011;65855;42.030;13.078;2024-03-23T15:20:55;7.68;;;3.13;;
76894;SDS011;65855;42.030;13.078;2024-03-23T15:23:21;4.38;;;1.65;;
76894;SDS011;65855;42.030;13.078;2024-03-23T15:25:53;7.53;;;2.63;;
76894;SDS011;65855;42.030;13.078;2024-03-23T15:28:18;7.55;;;3.47;;
76894;SDS011;65855;42.030;13.078;2024-03-23T15:30:44;8.27;;;2.90;;
76894;SDS011;65855;42.030;13.078;2024-03-23T15:33:09;6.63;;;2.25;;
76894;SDS011;65855;42.030;13.078;2024-03-23T15:35:34;7.33;;;2.20;;